Terminal Aerodrome Forecast
Issued by NWS Cleveland, OH

Home | Current Version | Previous Version | Text Only | Print | Product List | Glossary On
Versions: 1 2 3 4 5 6 7 8 9 10 11 12 13 14 15 16 17 18 19 20 21 22 23 24 25 26 27 28 29 30
802
FTUS41 KCLE 111741
TAFCLE
TAF
KCLE 111741Z 1118/1224 20008KT 6SM -SN SCT030 BKN045
      TEMPO 1118/1119 5SM -SN OVC030
     FM111900 22005KT P6SM BKN040
      TEMPO 1122/1124 3SM -SHSN OVC025
     FM120300 19008KT 4SM -SN SCT012 OVC025
     FM120600 24012G18KT 1 1/2SM -SN BKN008 OVC012
     FM121100 30020G30KT 4SM -SHSN OVC015
     FM121400 30022G32KT 6SM -SHSN OVC015=

USA.gov is the U.S. government's official web portal to all federal, state and local government web resources and services.